createdAt,value
2022-08-27T00:03:48.785Z,20.5
2022-08-27T00:08:54.972Z,20.5
2022-08-27T00:14:01.175Z,20.5
2022-08-27T00:19:07.387Z,20.4
2022-08-27T00:24:13.602Z,20.3
2022-08-27T00:29:18.833Z,20.3
2022-08-27T00:34:25.054Z,20.3
2022-08-27T00:39:30.279Z,20.2
2022-08-27T00:44:36.484Z,20.2
2022-08-27T00:49:42.700Z,20.2
2022-08-27T00:54:48.904Z,20.1
2022-08-27T00:59:55.109Z,20.1
2022-08-27T01:05:01.322Z,20.1
2022-08-27T01:10:07.528Z,20.1
2022-08-27T01:15:16.937Z,20.0
2022-08-27T01:20:19.947Z,20.0
2022-08-27T01:25:26.162Z,19.9
2022-08-27T01:30:32.366Z,19.8
2022-08-27T01:35:40.155Z,19.8
2022-08-27T01:40:44.781Z,19.7
2022-08-27T01:45:50.991Z,19.6
2022-08-27T01:50:57.198Z,19.5
2022-08-27T01:56:03.405Z,19.4
2022-08-27T02:01:09.677Z,19.3
2022-08-27T02:06:15.821Z,19.3
2022-08-27T02:11:22.035Z,19.2
2022-08-27T02:16:28.314Z,19.2
2022-08-27T02:21:34.461Z,19.1
2022-08-27T02:26:39.687Z,19.1
2022-08-27T02:31:45.957Z,19.0
2022-08-27T02:36:51.142Z,18.9
2022-08-27T02:41:57.336Z,18.8
2022-08-27T02:47:03.573Z,18.8
2022-08-27T02:52:09.761Z,18.7
2022-08-27T02:57:15.960Z,18.7
2022-08-27T03:02:22.347Z,18.6
2022-08-27T03:07:28.381Z,18.6
2022-08-27T03:12:34.592Z,18.6
2022-08-27T03:17:40.796Z,18.6
2022-08-27T03:22:47.012Z,18.6
2022-08-27T03:27:53.217Z,18.6
2022-08-27T03:32:59.420Z,18.6
2022-08-27T03:38:05.634Z,18.5
2022-08-27T03:43:11.841Z,18.5
2022-08-27T03:48:18.046Z,18.5
2022-08-27T03:53:24.258Z,18.5
2022-08-27T03:58:30.463Z,18.5
2022-08-27T04:03:36.674Z,18.5
2022-08-27T04:08:42.884Z,18.5
2022-08-27T04:13:49.088Z,18.5
2022-08-27T04:18:55.305Z,18.5
2022-08-27T04:24:00.533Z,18.5
2022-08-27T04:29:06.747Z,18.5
2022-08-27T04:34:11.977Z,18.4
2022-08-27T04:39:18.184Z,18.4
2022-08-27T04:44:24.395Z,18.4
2022-08-27T04:49:31.234Z,18.4
2022-08-27T04:54:36.815Z,18.4
2022-08-27T04:59:43.031Z,18.3
2022-08-27T05:04:49.305Z,18.3
2022-08-27T05:09:55.433Z,18.3
2022-08-27T05:15:01.648Z,18.3
2022-08-27T05:20:07.866Z,18.3
2022-08-27T05:25:14.066Z,18.2
2022-08-27T05:30:20.273Z,18.2
2022-08-27T05:35:26.483Z,18.2
2022-08-27T05:40:32.760Z,18.2
2022-08-27T05:45:38.896Z,18.2
2022-08-27T05:50:45.114Z,18.2
2022-08-27T05:55:51.313Z,18.2
2022-08-27T06:01:01.662Z,18.3
2022-08-27T06:06:03.728Z,18.3
2022-08-27T06:11:09.937Z,18.4
2022-08-27T06:16:16.170Z,18.4
2022-08-27T06:21:24.459Z,18.5
2022-08-27T06:26:27.592Z,18.6
2022-08-27T06:31:33.849Z,18.7
2022-08-27T06:36:39.038Z,18.8
2022-08-27T06:41:45.238Z,18.9
2022-08-27T06:46:51.452Z,19.0
2022-08-27T06:51:57.658Z,19.2
2022-08-27T06:57:03.864Z,19.3
2022-08-27T07:02:10.112Z,19.4
2022-08-27T07:07:31.784Z,19.5
2022-08-27T07:12:22.494Z,19.7
2022-08-27T07:17:28.700Z,19.8
2022-08-27T07:22:34.914Z,20.0
2022-08-27T07:27:41.121Z,20.2
2022-08-27T07:32:47.329Z,20.5
2022-08-27T07:37:53.534Z,20.8
2022-08-27T07:42:59.746Z,20.9
2022-08-27T07:48:05.956Z,21.2
2022-08-27T07:53:12.160Z,21.5
2022-08-27T07:58:18.749Z,21.7
2022-08-27T08:03:24.580Z,22.0
2022-08-27T08:08:30.793Z,22.2
2022-08-27T08:13:36.996Z,22.4
2022-08-27T08:18:43.205Z,22.5
2022-08-27T08:23:48.441Z,22.7
2022-08-27T08:28:54.653Z,22.9
2022-08-27T08:34:00.863Z,23.1
2022-08-27T08:39:07.072Z,23.2
2022-08-27T08:44:13.280Z,23.4
2022-08-27T08:49:19.485Z,23.4
2022-08-27T08:54:25.695Z,23.4
2022-08-27T08:59:31.902Z,23.5
2022-08-27T09:04:38.117Z,23.7
2022-08-27T09:09:44.320Z,23.8
2022-08-27T09:14:50.534Z,23.9
2022-08-27T09:19:56.741Z,24.1
2022-08-27T09:25:02.959Z,24.1
2022-08-27T09:30:09.165Z,24.1
2022-08-27T09:35:15.367Z,24.0
2022-08-27T09:40:22.747Z,24.0
2022-08-27T09:45:27.896Z,23.9
2022-08-27T09:50:33.996Z,23.9
2022-08-27T09:55:40.573Z,23.8
2022-08-27T10:00:46.447Z,23.8
2022-08-27T10:05:52.627Z,23.9
2022-08-27T10:10:57.861Z,24.1
2022-08-27T10:16:04.169Z,24.4
2022-08-27T10:21:09.305Z,24.6
2022-08-27T10:26:15.517Z,24.8
2022-08-27T10:31:21.774Z,25.0
2022-08-27T10:36:27.932Z,25.0
2022-08-27T10:41:34.143Z,25.2
2022-08-27T10:46:40.353Z,25.2
2022-08-27T10:51:46.556Z,25.2
2022-08-27T10:57:08.361Z,25.2
2022-08-27T11:01:59.031Z,25.1
2022-08-27T11:07:05.192Z,25.0
2022-08-27T11:12:15.270Z,24.9
2022-08-27T11:17:17.604Z,24.9
2022-08-27T11:22:26.373Z,24.9
2022-08-27T11:27:30.023Z,24.9
2022-08-27T11:32:36.232Z,25.1
2022-08-27T11:37:42.444Z,25.3
2022-08-27T11:42:48.653Z,25.4
2022-08-27T11:47:54.859Z,25.3
2022-08-27T11:53:01.069Z,25.3
2022-08-27T11:58:07.335Z,25.3
2022-08-27T12:03:13.577Z,25.3
2022-08-27T12:08:18.876Z,25.3
2022-08-27T12:13:24.939Z,25.3
2022-08-27T12:18:30.186Z,25.3
2022-08-27T12:23:36.390Z,25.4
2022-08-27T12:28:41.628Z,25.4
2022-08-27T12:33:47.842Z,25.4
2022-08-27T12:38:54.046Z,25.4
2022-08-27T12:44:00.272Z,25.4
2022-08-27T12:49:35.996Z,25.5
2022-08-27T12:54:12.687Z,25.5
2022-08-27T12:59:18.878Z,25.6
2022-08-27T13:04:25.090Z,25.6
2022-08-27T13:09:31.296Z,25.7
2022-08-27T13:14:37.507Z,25.8
2022-08-27T13:19:43.714Z,25.9
2022-08-27T13:24:49.929Z,25.8
2022-08-27T13:29:56.137Z,25.7
2022-08-27T13:35:02.372Z,25.7
2022-08-27T13:40:08.586Z,25.7
2022-08-27T13:45:14.764Z,25.8
2022-08-27T13:50:20.974Z,25.8
2022-08-27T13:55:27.184Z,25.8
2022-08-27T14:00:33.390Z,25.9
2022-08-27T14:05:39.595Z,25.9
2022-08-27T14:10:45.813Z,25.9
2022-08-27T14:15:52.050Z,25.8
2022-08-27T14:20:57.255Z,25.8
2022-08-27T14:26:03.469Z,25.8
2022-08-27T14:31:09.829Z,25.7
2022-08-27T14:36:14.911Z,25.7
2022-08-27T14:41:21.671Z,25.7
2022-08-27T14:46:27.426Z,25.7
2022-08-27T14:51:33.554Z,25.6
2022-08-27T14:56:39.748Z,25.6
2022-08-27T15:01:46.031Z,25.6
2022-08-27T15:06:52.167Z,25.5
2022-08-27T15:11:58.376Z,25.4
2022-08-27T15:17:33.404Z,25.4
2022-08-27T15:22:13.928Z,25.3
2022-08-27T15:27:17.027Z,25.2
2022-08-27T15:32:23.214Z,25.2
2022-08-27T15:37:29.433Z,25.1
2022-08-27T15:42:35.658Z,25.1
2022-08-27T15:47:41.837Z,25.0
2022-08-27T15:57:54.254Z,24.9
2022-08-27T16:03:00.510Z,24.9
2022-08-27T16:08:06.682Z,24.8
2022-08-27T16:13:12.887Z,24.7
2022-08-27T16:18:19.096Z,24.6
2022-08-27T16:23:25.304Z,24.5
2022-08-27T16:28:30.541Z,24.5
2022-08-27T16:33:36.749Z,24.4
2022-08-27T16:38:41.985Z,24.3
2022-08-27T16:43:48.212Z,24.3
2022-08-27T16:49:00.959Z,24.2
2022-08-27T16:54:00.615Z,24.1
2022-08-27T16:59:06.821Z,24.1
2022-08-27T17:04:18.394Z,24.0
2022-08-27T17:09:19.240Z,24.0
2022-08-27T17:14:25.451Z,23.9
2022-08-27T17:19:31.653Z,23.8
2022-08-27T17:24:37.870Z,23.8
2022-08-27T17:29:44.077Z,23.7
2022-08-27T17:34:50.281Z,23.6
2022-08-27T17:39:56.517Z,23.6
2022-08-27T17:45:02.776Z,23.6
2022-08-27T17:50:08.917Z,23.5
2022-08-27T17:55:15.123Z,23.4
2022-08-27T18:00:21.336Z,23.4
2022-08-27T18:05:27.592Z,23.4
2022-08-27T18:10:33.748Z,23.3
2022-08-27T18:15:39.956Z,23.3
2022-08-27T18:20:46.171Z,23.2
2022-08-27T18:30:57.766Z,23.1
2022-08-27T18:36:02.848Z,23.1
2022-08-27T18:41:09.059Z,23.0
2022-08-27T18:46:14.355Z,23.0
2022-08-27T18:51:20.503Z,22.9
2022-08-27T18:56:26.713Z,22.9
2022-08-27T19:01:33.075Z,22.9
2022-08-27T19:06:39.136Z,22.8
2022-08-27T19:11:45.344Z,22.8
2022-08-27T19:16:51.585Z,22.8
2022-08-27T19:21:57.756Z,22.7
2022-08-27T19:27:03.967Z,22.7
2022-08-27T19:32:10.214Z,22.7
2022-08-27T19:37:16.391Z,22.6
2022-08-27T19:42:22.590Z,22.6
2022-08-27T19:47:28.799Z,22.5
2022-08-27T19:52:35.009Z,22.4
2022-08-27T19:57:41.227Z,22.3
2022-08-27T20:02:47.425Z,22.3
2022-08-27T20:07:53.642Z,22.2
2022-08-27T20:12:59.845Z,22.1
2022-08-27T20:18:06.082Z,22.0
2022-08-27T20:23:12.262Z,21.9
2022-08-27T20:28:38.488Z,21.9
2022-08-27T20:33:23.714Z,21.8
2022-08-27T20:38:29.935Z,21.8
2022-08-27T20:43:35.153Z,21.7
2022-08-27T20:48:41.364Z,21.6
2022-08-27T20:53:47.569Z,21.5
2022-08-27T20:58:53.780Z,21.5
2022-08-27T21:03:59.988Z,21.4
2022-08-27T21:09:06.199Z,21.3
2022-08-27T21:14:12.417Z,21.2
2022-08-27T21:19:18.613Z,21.1
2022-08-27T21:24:24.825Z,21.1
2022-08-27T21:29:31.032Z,21.0
2022-08-27T21:34:37.244Z,20.9
2022-08-27T21:39:43.447Z,20.8
2022-08-27T21:44:49.656Z,20.7
2022-08-27T21:49:55.870Z,20.6
2022-08-27T21:55:02.078Z,20.5
2022-08-27T22:00:08.311Z,20.4
2022-08-27T22:05:14.492Z,20.3
2022-08-27T22:10:20.697Z,20.2
2022-08-27T22:15:26.909Z,20.0
2022-08-27T22:20:33.114Z,19.9
2022-08-27T22:25:39.326Z,19.8
2022-08-27T22:30:44.559Z,19.7
2022-08-27T22:35:50.771Z,19.5
2022-08-27T22:40:56.989Z,19.4
2022-08-27T22:46:03.192Z,19.3
2022-08-27T22:51:09.401Z,19.2
2022-08-27T22:56:15.610Z,19.1
2022-08-27T23:01:21.840Z,19.1
2022-08-27T23:06:28.025Z,19.0
2022-08-27T23:11:34.230Z,18.9
2022-08-27T23:16:40.447Z,18.8
2022-08-27T23:21:46.646Z,18.7
2022-08-27T23:26:52.856Z,18.7
2022-08-27T23:31:59.063Z,18.6
2022-08-27T23:37:05.273Z,18.5
2022-08-27T23:42:11.480Z,18.4
2022-08-27T23:47:17.704Z,18.3
2022-08-27T23:52:23.896Z,18.3
2022-08-27T23:57:30.102Z,18.2
